Time;durP1;ratioP1;P1;durP2;ratioP2;P2;SDS_P1;SDS_P2;PMS_P1;PMS_P2;Temp;Humidity;BMP_temperature;BMP_pressure;BME280_temperature;BME280_humidity;BME280_pressure;Samples;Min_cycle;Max_cycle;Signal;HPM_P1;HPM_P2
2022/10/30 00:01:42;;;;;;;14.43;6.80;;;;;;;26.01;41.55;101681.69;5066968;28;20025;-72
2022/10/30 00:04:07;;;;;;;16.63;6.68;;;;;;;26.13;41.18;101688.97;5050765;28;20019;-72
2022/10/30 00:06:33;;;;;;;14.60;7.00;;;;;;;25.99;41.19;101688.94;5050767;28;20029;-72
2022/10/30 00:08:58;;;;;;;16.33;6.68;;;;;;;25.57;42.20;101678.94;5050275;28;20451;-72
2022/10/30 00:11:24;;;;;;;18.88;6.80;;;;;;;25.81;41.64;101681.06;5050923;28;20569;-72
2022/10/30 00:13:49;;;;;;;20.58;7.85;;;;;;;25.88;41.56;101679.75;5050004;28;20024;-72
2022/10/30 00:16:14;;;;;;;17.45;7.32;;;;;;;25.89;41.74;101676.09;5050668;28;20027;-72
2022/10/30 00:18:42;;;;;;;16.05;6.13;;;;;;;26.17;40.81;101685.16;5050694;28;20079;-72
2022/10/30 00:21:13;;;;;;;19.30;6.72;;;;;;;25.96;41.46;101683.75;5050104;28;20052;-72
2022/10/30 00:23:44;;;;;;;16.38;7.22;;;;;;;25.48;42.12;101684.81;5051845;28;20029;-72
2022/10/30 00:26:09;;;;;;;15.13;6.93;;;;;;;25.32;42.65;101675.94;5051806;28;20070;-72
2022/10/30 00:28:35;;;;;;;17.88;7.93;;;;;;;25.35;42.64;101682.03;5049883;28;20359;-72
2022/10/30 00:31:02;;;;;;;17.08;6.93;;;;;;;25.52;42.01;101689.03;5050609;28;20028;-72
2022/10/30 00:33:27;;;;;;;15.00;6.95;;;;;;;25.76;41.31;101685.84;5051577;28;20029;-73
2022/10/30 00:35:52;;;;;;;18.85;7.60;;;;;;;25.47;42.23;101690.28;5049524;28;20025;-72
2022/10/30 00:38:18;;;;;;;17.55;7.85;;;;;;;25.63;41.82;101687.56;5050401;28;20036;-72
2022/10/30 00:40:43;;;;;;;15.68;6.45;;;;;;;25.42;42.37;101693.25;5050429;28;20056;-72
2022/10/30 00:43:28;;;;;;;18.38;6.97;;;;;;;25.54;42.28;101697.84;5049409;28;20025;-72
2022/10/30 00:45:55;;;;;;;18.55;7.45;;;;;;;25.26;42.58;101695.06;5050328;28;20028;-72
2022/10/30 00:48:25;;;;;;;20.10;7.32;;;;;;;25.40;42.31;101689.78;5051584;28;20034;-72
2022/10/30 00:50:52;;;;;;;14.13;7.32;;;;;;;25.37;42.17;101696.16;5050954;28;20045;-72
2022/10/30 00:53:20;;;;;;;18.45;7.70;;;;;;;25.09;43.13;101696.03;5050196;28;20162;-72
2022/10/30 00:55:56;;;;;;;22.38;8.02;;;;;;;25.09;43.06;101696.91;5066702;28;20406;-72
2022/10/30 00:58:33;;;;;;;13.35;6.55;;;;;;;25.27;42.43;101694.97;5051472;28;20489;-72
2022/10/30 01:01:01;;;;;;;18.38;6.95;;;;;;;25.15;42.25;101701.03;5050277;28;20021;-72
2022/10/30 01:03:27;;;;;;;14.27;7.03;;;;;;;25.01;42.78;101693.81;5053497;28;20115;-72
2022/10/30 01:05:57;;;;;;;19.25;8.27;;;;;;;25.43;42.29;101692.28;5055336;28;20106;-72
2022/10/30 01:08:23;;;;;;;17.40;8.05;;;;;;;25.44;41.88;101690.47;5070876;28;20021;-72
2022/10/30 01:10:48;;;;;;;14.38;7.18;;;;;;;25.15;42.30;101701.03;5053378;28;20048;-72
2022/10/30 01:13:16;;;;;;;25.83;7.47;;;;;;;25.12;42.66;101702.06;5055451;28;20032;-72
2022/10/30 01:16:08;;;;;;;16.45;6.85;;;;;;;25.26;42.43;101703.09;5053949;28;20040;-72
2022/10/30 01:19:02;;;;;;;20.65;7.00;;;;;;;25.18;42.79;101696.38;5053054;28;20060;-72
2022/10/30 01:21:43;;;;;;;18.13;8.30;;;;;;;25.15;42.77;101701.03;5053933;28;20098;-72
2022/10/30 01:24:18;;;;;;;18.50;8.80;;;;;;;25.22;42.29;101703.28;5069828;28;20116;-73
2022/10/30 01:27:03;;;;;;;19.58;8.10;;;;;;;25.31;42.44;101701.84;5070716;28;20029;-72
2022/10/30 01:30:09;;;;;;;20.08;7.90;;;;;;;25.33;42.56;101699.97;5054982;28;20105;-72
2022/10/30 01:32:35;;;;;;;15.93;7.30;;;;;;;25.24;42.57;101698.69;5053127;28;20017;-72
2022/10/30 01:35:12;;;;;;;17.88;8.73;;;;;;;25.42;42.31;101708.41;5070424;28;20078;-72
2022/10/30 01:37:46;;;;;;;13.50;7.45;;;;;;;25.49;42.07;101705.28;5054985;28;20029;-72
2022/10/30 01:40:15;;;;;;;23.17;7.97;;;;;;;25.33;42.13;101708.00;5053083;28;20052;-72
2022/10/30 01:42:48;;;;;;;23.45;7.47;;;;;;;25.17;42.75;101700.00;5053679;28;20059;-72
2022/10/30 01:45:20;;;;;;;21.40;7.97;;;;;;;24.47;43.75;101710.13;5069288;28;20029;-72
2022/10/30 01:47:53;;;;;;;20.45;7.13;;;;;;;24.93;43.08;101709.44;5053501;28;20086;-72
2022/10/30 01:50:24;;;;;;;;;;;;;;;24.84;43.12;101711.69;5055242;28;20031;-72
2022/10/30 01:53:32;;;;;;;18.98;7.53;;;;;;;25.16;42.98;101710.78;5069126;28;19912;-72
2022/10/30 01:56:09;;;;;;;17.95;7.43;;;;;;;25.22;42.57;101713.97;5034919;28;20075;-72
2022/10/30 01:59:01;;;;;;;18.80;7.55;;;;;;;24.94;43.31;101703.13;5070104;28;20039;-72
2022/10/30 02:01:28;;;;;;;18.33;7.18;;;;;;;24.94;43.37;101708.50;5064266;28;20524;-72
2022/10/30 02:03:53;;;;;;;18.02;7.60;;;;;;;24.90;43.29;101702.44;5053188;28;20033;-72
2022/10/30 02:06:19;;;;;;;22.83;8.50;;;;;;;24.77;43.80;101715.66;5053825;28;20040;-72
2022/10/30 02:08:44;;;;;;;20.63;7.95;;;;;;;25.23;42.69;101714.81;5053064;28;20021;-72
2022/10/30 02:11:10;;;;;;;23.42;7.68;;;;;;;25.01;43.21;101709.84;5052928;28;20131;-72
2022/10/30 02:13:37;;;;;;;21.17;7.70;;;;;;;24.92;43.02;101711.22;5051662;28;20049;-72
2022/10/30 02:16:03;;;;;;;18.58;7.35;;;;;;;25.19;42.87;101719.47;5053009;28;20031;-72
2022/10/30 02:18:28;;;;;;;21.23;7.20;;;;;;;25.19;43.08;101714.13;5054310;28;20021;-72
2022/10/30 02:20:54;;;;;;;21.35;7.70;;;;;;;25.19;42.93;101719.47;5052343;28;20465;-72
2022/10/30 02:23:21;;;;;;;20.23;9.23;;;;;;;25.13;43.16;101719.84;5052548;28;20465;-72
2022/10/30 02:25:47;;;;;;;15.95;7.57;;;;;;;25.18;42.66;101717.78;5054357;28;20550;-72
2022/10/30 02:28:12;;;;;;;16.52;7.95;;;;;;;25.24;42.37;101716.56;5052142;28;20033;-72
2022/10/30 02:30:38;;;;;;;17.33;7.25;;;;;;;25.26;42.41;101714.63;5052723;28;20025;-72
2022/10/30 02:33:03;;;;;;;14.30;6.80;;;;;;;24.94;43.06;101717.34;5052437;28;20062;-72
2022/10/30 02:35:29;;;;;;;19.35;8.18;;;;;;;25.00;43.59;101718.81;5053221;28;20388;-72
2022/10/30 02:37:55;;;;;;;18.63;7.95;;;;;;;25.06;42.97;101718.47;5052500;28;20050;-72
2022/10/30 02:40:20;;;;;;;13.95;7.80;;;;;;;25.08;42.80;101719.25;5052560;28;20020;-72
2022/10/30 02:42:53;;;;;;;16.23;8.85;;;;;;;24.86;43.30;101723.13;5051823;28;20136;-72
2022/10/30 02:45:19;;;;;;;19.52;8.73;;;;;;;25.09;42.80;101728.13;5052353;28;20472;-72
2022/10/30 02:47:45;;;;;;;18.38;7.75;;;;;;;24.83;43.06;101734.00;5053719;28;20094;-72
2022/10/30 02:50:10;;;;;;;17.85;7.00;;;;;;;24.95;43.27;101723.56;5051721;28;20021;-72
2022/10/30 02:52:35;;;;;;;17.42;7.43;;;;;;;25.19;42.33;101724.81;5052275;28;20512;-72
2022/10/30 02:55:01;;;;;;;20.70;7.85;;;;;;;25.13;42.86;101718.97;5053169;28;20076;-72
2022/10/30 02:57:26;;;;;;;18.33;7.40;;;;;;;24.82;43.27;101723.41;5051466;28;20542;-72
2022/10/30 02:59:52;;;;;;;14.93;7.63;;;;;;;24.77;43.45;101726.34;5052381;28;20021;-72
2022/10/30 03:02:17;;;;;;;22.38;8.55;;;;;;;24.69;43.41;101725.91;5052164;28;20021;-72
2022/10/30 03:04:42;;;;;;;20.05;8.00;;;;;;;24.82;43.05;101726.91;5052728;28;20095;-72
2022/10/30 03:07:08;;;;;;;18.98;8.52;;;;;;;24.84;43.17;101724.16;5051934;28;20111;-72
2022/10/30 03:09:33;;;;;;;23.42;8.25;;;;;;;24.60;43.75;101734.41;5051653;28;20124;-72
2022/10/30 03:11:58;;;;;;;17.17;7.65;;;;;;;24.81;43.21;101725.22;5051398;28;20013;-72
2022/10/30 03:14:24;;;;;;;15.52;7.43;;;;;;;24.88;42.88;101721.25;5053150;28;20036;-72
2022/10/30 03:16:51;;;;;;;21.08;8.48;;;;;;;24.59;43.60;101721.97;5051356;28;20025;-72
2022/10/30 03:19:17;;;;;;;15.68;8.18;;;;;;;24.76;42.90;101713.91;5051653;28;20028;-72
2022/10/30 03:21:43;;;;;;;16.63;8.52;;;;;;;24.45;43.79;101707.56;5068386;28;20028;-72
2022/10/30 03:24:08;;;;;;;18.38;8.25;;;;;;;24.72;43.74;101712.38;5050117;28;20024;-72
2022/10/30 03:26:34;;;;;;;24.38;7.90;;;;;;;24.52;43.92;101714.31;5052942;28;20127;-72
2022/10/30 03:28:59;;;;;;;21.80;8.15;;;;;;;24.76;43.42;101705.91;5051693;28;20029;-72
2022/10/30 03:31:25;;;;;;;24.77;8.98;;;;;;;24.41;44.20;101695.31;5052135;28;20388;-72
2022/10/30 03:33:50;;;;;;;20.23;8.38;;;;;;;24.78;43.46;101697.78;5068097;28;20025;-72
2022/10/30 03:36:15;;;;;;;18.38;9.43;;;;;;;24.89;42.94;101706.06;5051386;28;20366;-73
2022/10/30 03:38:41;;;;;;;22.15;9.27;;;;;;;24.59;44.10;101711.28;5050731;28;20052;-72
2022/10/30 03:41:06;;;;;;;22.02;9.40;;;;;;;24.89;42.96;101720.31;5068200;28;20485;-72
2022/10/30 03:43:32;;;;;;;21.90;9.13;;;;;;;24.20;44.42;101722.25;5051143;28;20028;-72
2022/10/30 03:45:58;;;;;;;23.17;8.63;;;;;;;24.33;43.65;101713.56;5051868;28;20028;-72
2022/10/30 03:48:25;;;;;;;17.13;8.88;;;;;;;24.41;43.71;101715.84;5052616;28;20119;-73
2022/10/30 03:50:55;;;;;;;21.42;8.98;;;;;;;24.28;44.08;101718.31;5051104;28;20025;-72
2022/10/30 03:53:22;;;;;;;20.70;8.65;;;;;;;23.98;44.79;101713.66;5050418;28;20016;-72
2022/10/30 03:55:49;;;;;;;19.42;8.63;;;;;;;24.14;44.90;101714.56;5050851;28;20090;-72
2022/10/30 03:58:14;;;;;;;16.38;9.65;;;;;;;24.28;43.78;101710.31;5067562;28;20060;-72
2022/10/30 04:00:39;;;;;;;19.23;9.00;;;;;;;23.85;44.91;101713.41;5050151;28;20063;-72
2022/10/30 04:03:07;;;;;;;21.65;9.20;;;;;;;23.87;44.95;101720.38;5051255;28;20025;-72
2022/10/30 04:05:32;;;;;;;20.27;9.40;;;;;;;23.71;45.31;101727.47;5050965;28;20021;-72
2022/10/30 04:08:00;;;;;;;23.83;9.90;;;;;;;23.50;45.73;101732.94;5049948;28;20384;-72
2022/10/30 04:10:26;;;;;;;22.45;9.20;;;;;;;23.94;44.74;101728.13;5050515;28;20086;-72
2022/10/30 04:12:58;;;;;;;17.50;9.05;;;;;;;24.14;44.17;101730.59;5051865;28;20021;-72
2022/10/30 04:15:24;;;;;;;20.05;10.20;;;;;;;24.29;43.50;101728.03;5050768;28;20025;-72
2022/10/30 04:17:50;;;;;;;19.65;9.10;;;;;;;23.65;44.85;101733.13;5067105;28;20029;-72
2022/10/30 04:20:19;;;;;;;20.52;9.77;;;;;;;24.15;43.74;101726.13;5049813;28;20025;-72
2022/10/30 04:22:45;;;;;;;17.95;10.13;;;;;;;24.32;43.23;101727.91;5050735;28;20461;-72
2022/10/30 04:25:11;;;;;;;18.55;9.95;;;;;;;23.97;44.30;101722.63;5067375;28;20032;-72
2022/10/30 04:27:41;;;;;;;20.85;9.57;;;;;;;24.30;43.46;101724.44;5049829;28;20120;-72
2022/10/30 04:30:08;;;;;;;21.85;9.57;;;;;;;23.74;45.08;101727.31;5050619;28;20031;-72
2022/10/30 04:32:33;;;;;;;17.25;9.38;;;;;;;24.18;43.62;101718.81;5049891;28;20037;-72
2022/10/30 04:34:59;;;;;;;18.63;9.30;;;;;;;24.01;44.42;101724.19;5049600;28;20130;-72
2022/10/30 04:37:24;;;;;;;21.08;9.65;;;;;;;23.49;45.25;101723.25;5066983;28;20044;-72
2022/10/30 04:39:50;;;;;;;20.15;9.65;;;;;;;23.65;44.92;101717.97;5050430;28;20129;-72
2022/10/30 04:42:16;;;;;;;26.98;10.35;;;;;;;23.37;45.76;101721.19;5051019;28;20035;-72
2022/10/30 04:44:41;;;;;;;21.15;9.30;;;;;;;23.28;45.88;101724.31;5066928;28;20119;-72
2022/10/30 04:47:07;;;;;;;21.48;10.02;;;;;;;23.80;44.77;101708.31;5066998;28;20059;-72
2022/10/30 04:49:32;;;;;;;20.08;9.57;;;;;;;23.81;45.16;101712.72;5049585;28;20405;-72
2022/10/30 04:51:57;;;;;;;18.88;9.95;;;;;;;23.14;46.63;101704.50;5051801;28;20488;-72
2022/10/30 04:54:23;;;;;;;22.60;10.70;;;;;;;23.52;45.75;101696.41;5049827;28;20049;-72
2022/10/30 04:56:48;;;;;;;19.50;9.98;;;;;;;23.80;44.65;101694.13;5049459;28;20533;-72
2022/10/30 04:59:14;;;;;;;20.95;10.00;;;;;;;23.74;44.97;101695.31;5066882;28;20029;-72
2022/10/30 05:01:39;;;;;;;23.98;10.07;;;;;;;23.76;45.11;101688.06;5050305;28;20031;-72
2022/10/30 05:04:04;;;;;;;24.27;10.00;;;;;;;23.62;45.59;101682.59;5050757;28;20052;-72
2022/10/30 05:06:30;;;;;;;29.02;11.13;;;;;;;23.29;46.26;101694.03;5050317;28;20025;-72
2022/10/30 05:08:56;;;;;;;18.75;9.13;;;;;;;23.14;46.24;101685.00;5051764;28;20083;-72
2022/10/30 05:11:22;;;;;;;20.00;11.00;;;;;;;23.69;45.44;101697.34;5049538;28;20033;-72
2022/10/30 05:13:47;;;;;;;22.80;9.82;;;;;;;23.57;44.75;101687.28;5050094;28;20078;-72
2022/10/30 05:16:13;;;;;;;23.00;9.85;;;;;;;23.76;44.73;101704.06;5049416;28;20033;-72
2022/10/30 05:18:38;;;;;;;20.92;9.93;;;;;;;23.47;44.98;101697.59;5051223;28;20451;-72
2022/10/30 05:21:04;;;;;;;23.23;10.68;;;;;;;23.69;44.91;101697.34;5050100;28;20036;-72
2022/10/30 05:23:29;;;;;;;22.95;10.38;;;;;;;23.45;45.27;101703.00;5049419;28;20075;-72
2022/10/30 05:25:54;;;;;;;20.52;9.80;;;;;;;23.45;45.10;101708.34;5051344;28;20048;-72
2022/10/30 05:28:20;;;;;;;21.63;9.98;;;;;;;23.55;44.72;101696.22;5066507;28;20166;-72
2022/10/30 05:30:45;;;;;;;19.88;9.55;;;;;;;22.92;46.89;101695.81;5049249;28;20070;-72
2022/10/30 05:33:11;;;;;;;20.85;9.80;;;;;;;23.59;45.44;101696.06;5049997;28;20119;-72
2022/10/30 05:35:37;;;;;;;22.58;10.25;;;;;;;23.08;46.14;101706.59;5050070;28;20512;-72
2022/10/30 05:38:04;;;;;;;24.30;10.52;;;;;;;23.39;45.63;101689.94;5049250;28;20021;-72
2022/10/30 05:40:31;;;;;;;17.35;10.07;;;;;;;23.41;45.09;101704.09;5066209;28;20025;-72
2022/10/30 05:42:56;;;;;;;19.73;9.65;;;;;;;23.73;44.62;101704.25;5050057;28;20130;-72
2022/10/30 05:45:22;;;;;;;23.13;10.48;;;;;;;23.62;44.71;101702.13;5049302;28;20017;-72
2022/10/30 05:48:02;;;;;;;17.23;9.38;;;;;;;23.65;44.62;101706.44;5051982;28;20031;-72
2022/10/30 05:50:27;;;;;;;17.63;9.93;;;;;;;23.57;44.37;101714.81;5054761;28;20469;-72
2022/10/30 05:53:01;;;;;;;19.88;11.73;;;;;;;23.67;44.14;101709.88;5054188;28;20040;-72
2022/10/30 05:55:27;;;;;;;19.92;8.93;;;;;;;23.34;45.28;101710.66;5053252;28;20052;-72
2022/10/30 05:58:01;;;;;;;22.73;9.48;;;;;;;23.58;44.88;101705.88;5053226;28;20435;-72
2022/10/30 06:00:28;;;;;;;27.63;9.90;;;;;;;23.47;44.58;101708.25;5053892;28;20159;-72
2022/10/30 06:03:01;;;;;;;18.40;9.45;;;;;;;23.68;44.83;101728.47;5053248;28;20123;-72
2022/10/30 06:05:28;;;;;;;16.75;9.18;;;;;;;23.60;44.69;101727.16;5052433;28;20508;-72
2022/10/30 06:07:55;;;;;;;19.00;9.63;;;;;;;23.53;44.39;101732.81;5053117;28;20033;-72
2022/10/30 06:10:21;;;;;;;18.83;9.95;;;;;;;23.71;44.02;101731.00;5054395;28;20021;-72
2022/10/30 06:12:55;;;;;;;23.08;10.00;;;;;;;23.47;44.78;101724.25;5052169;28;20134;-72
2022/10/30 06:15:21;;;;;;;22.20;10.88;;;;;;;23.36;45.06;101722.97;5053042;28;20060;-72
2022/10/30 06:17:46;;;;;;;17.60;9.57;;;;;;;23.44;45.04;101724.38;5052887;28;20036;-72
2022/10/30 06:20:12;;;;;;;19.05;9.95;;;;;;;23.42;45.06;101727.13;5053327;28;20024;-72
2022/10/30 06:22:37;;;;;;;18.77;10.13;;;;;;;23.50;44.56;101730.28;5052917;28;20028;-72
2022/10/30 06:25:03;;;;;;;17.85;10.20;;;;;;;23.35;45.00;101720.38;5052794;28;20465;-72
2022/10/30 06:27:28;;;;;;;18.48;9.65;;;;;;;23.00;46.16;101709.66;5053316;28;20040;-72
2022/10/30 06:29:54;;;;;;;20.75;10.27;;;;;;;22.90;46.40;101722.53;5052718;28;20029;-72
2022/10/30 06:32:20;;;;;;;21.13;9.80;;;;;;;23.13;46.11;101721.44;5052672;28;20492;-72
2022/10/30 06:34:45;;;;;;;22.45;10.52;;;;;;;23.39;45.31;101727.28;5051901;28;20492;-72
2022/10/30 06:37:11;;;;;;;17.65;9.18;;;;;;;23.32;45.87;101732.06;5069230;28;20064;-72
2022/10/30 06:39:36;;;;;;;21.77;11.23;;;;;;;23.06;45.98;101736.00;5052354;28;20493;-72
2022/10/30 06:42:02;;;;;;;22.20;10.18;;;;;;;22.85;46.44;101743.22;5051722;28;20027;-72
2022/10/30 06:44:27;;;;;;;22.52;9.35;;;;;;;23.06;45.85;101738.66;5053915;28;20497;-72
2022/10/30 06:46:53;;;;;;;18.95;9.25;;;;;;;23.27;44.79;101736.75;5052257;28;20032;-72
2022/10/30 06:49:18;;;;;;;27.20;9.85;;;;;;;23.43;45.07;101736.88;5051574;28;20507;-72
2022/10/30 06:51:44;;;;;;;20.13;9.65;;;;;;;23.37;45.18;101724.72;5052420;28;20140;-72
2022/10/30 06:54:09;;;;;;;25.50;10.60;;;;;;;23.25;45.15;101725.31;5051812;28;20056;-72
2022/10/30 06:56:35;;;;;;;20.05;9.77;;;;;;;23.14;45.79;101715.19;5051613;28;20123;-72
2022/10/30 06:59:00;;;;;;;23.70;10.52;;;;;;;23.02;46.21;101715.75;5053292;28;20385;-72
2022/10/30 07:01:26;;;;;;;29.02;11.65;;;;;;;22.75;47.71;101716.16;5052214;28;20063;-72
2022/10/30 07:03:51;;;;;;;27.55;11.85;;;;;;;23.33;46.00;101706.28;5051322;28;20033;-72
2022/10/30 07:06:16;;;;;;;31.77;12.43;;;;;;;22.87;47.45;101707.56;5052079;28;20051;-72
2022/10/30 07:08:42;;;;;;;21.75;11.15;;;;;;;23.15;47.37;101708.91;5051605;28;20051;-73
2022/10/30 07:11:07;;;;;;;27.80;12.68;;;;;;;23.40;46.57;101697.03;5051897;28;20121;-72
2022/10/30 07:13:32;;;;;;;32.22;11.88;;;;;;;22.70;47.86;101702.19;5053260;28;20040;-72
2022/10/30 07:15:58;;;;;;;27.67;12.63;;;;;;;23.32;46.51;101704.53;5067731;28;20043;-72
2022/10/30 07:18:24;;;;;;;24.17;11.60;;;;;;;23.62;46.52;101710.13;5051905;28;20075;-72
2022/10/30 07:20:55;;;;;;;24.60;12.90;;;;;;;23.22;47.88;101709.47;5053187;28;20082;-72
2022/10/30 07:23:20;;;;;;;22.30;11.50;;;;;;;23.36;47.19;101717.63;5052268;28;20025;-73
2022/10/30 07:25:45;;;;;;;23.48;12.02;;;;;;;23.53;46.85;101713.25;5068431;28;20025;-72
2022/10/30 07:28:11;;;;;;;23.60;11.57;;;;;;;23.91;45.98;101723.81;5051478;28;20043;-72
2022/10/30 07:30:36;;;;;;;22.90;12.30;;;;;;;23.89;45.71;101725.66;5051111;28;20080;-72
2022/10/30 07:33:04;;;;;;;31.25;12.38;;;;;;;23.79;46.21;101719.91;5052571;28;20485;-72
2022/10/30 07:35:31;;;;;;;19.45;11.95;;;;;;;23.87;45.89;101716.88;5051429;28;20029;-72
2022/10/30 07:38:04;;;;;;;28.05;12.55;;;;;;;24.05;45.86;101721.25;5050896;28;20041;-72
2022/10/30 07:40:30;;;;;;;23.88;11.43;;;;;;;24.61;44.55;101720.09;5051312;28;20025;-72
2022/10/30 07:42:56;;;;;;;23.23;11.90;;;;;;;23.61;45.94;101720.88;5051608;28;20089;-72
2022/10/30 07:45:22;;;;;;;19.38;12.02;;;;;;;24.11;45.98;101725.44;5050505;28;20036;-72
2022/10/30 07:47:47;;;;;;;20.15;11.93;;;;;;;24.42;44.69;101723.75;5052332;28;20032;-72
2022/10/30 07:50:12;;;;;;;23.85;10.88;;;;;;;24.37;44.52;101731.16;5051089;28;20029;-72
2022/10/30 07:52:38;;;;;;;28.33;12.77;;;;;;;24.48;44.69;101722.56;5050673;28;20040;-72
2022/10/30 07:55:04;;;;;;;21.90;11.27;;;;;;;24.76;43.77;101721.94;5050946;28;20072;-72
2022/10/30 07:57:39;;;;;;;27.88;11.57;;;;;;;24.93;43.50;101722.81;5068035;28;20098;-73
2022/10/30 08:00:09;;;;;;;27.35;12.15;;;;;;;24.83;44.29;101723.31;5051777;28;20041;-72
2022/10/30 08:02:34;;;;;;;21.75;12.00;;;;;;;24.86;44.39;101728.47;5052153;28;20499;-72
2022/10/30 08:05:00;;;;;;;22.35;10.95;;;;;;;24.65;44.73;101719.00;5050384;28;20052;-73
2022/10/30 08:07:34;;;;;;;22.85;11.95;;;;;;;24.80;44.21;101728.84;5067611;28;20111;-72
2022/10/30 08:10:00;;;;;;;29.00;12.85;;;;;;;24.71;44.53;101726.66;5066922;28;20378;-72
2022/10/30 08:12:26;;;;;;;21.25;12.50;;;;;;;25.08;43.89;101727.25;5066866;28;20055;-72
2022/10/30 08:14:52;;;;;;;22.38;11.50;;;;;;;25.04;44.19;101731.06;5050588;28;20033;-72
2022/10/30 08:17:18;;;;;;;21.52;11.90;;;;;;;24.54;45.41;101731.09;5050994;28;20033;-72
2022/10/30 08:19:43;;;;;;;20.63;11.68;;;;;;;24.92;44.98;101735.28;5049999;28;20036;-72
2022/10/30 08:22:12;;;;;;;23.08;11.05;;;;;;;25.05;44.76;101732.78;5050443;28;20025;-72
2022/10/30 08:24:38;;;;;;;23.88;11.38;;;;;;;24.58;45.32;101733.59;5052072;28;20083;-72
2022/10/30 08:27:04;;;;;;;26.25;12.60;;;;;;;25.01;45.18;101747.28;5051175;28;20025;-72
2022/10/30 08:29:30;;;;;;;25.65;12.85;;;;;;;24.48;46.35;101755.50;5051476;28;20071;-72
2022/10/30 08:31:55;;;;;;;22.05;12.13;;;;;;;24.58;46.13;101746.97;5050407;28;20120;-72
2022/10/30 08:34:21;;;;;;;31.30;12.18;;;;;;;25.11;45.31;101745.81;5049540;28;20112;-73
2022/10/30 08:36:48;;;;;;;28.13;12.38;;;;;;;25.09;44.89;101750.38;5050423;28;20505;-72
2022/10/30 08:39:14;;;;;;;25.33;11.98;;;;;;;25.64;44.69;101740.13;5050214;28;20029;-73
2022/10/30 08:41:39;;;;;;;31.45;13.05;;;;;;;26.01;43.97;101737.91;5066295;28;20021;-72
2022/10/30 08:44:05;;;;;;;20.42;11.90;;;;;;;25.51;44.24;101738.19;5050072;28;20466;-73
2022/10/30 08:46:30;;;;;;;25.00;12.20;;;;;;;25.31;44.93;101733.13;5050308;28;20389;-72
2022/10/30 08:48:56;;;;;;;24.30;12.00;;;;;;;25.64;44.46;101729.44;5066281;28;20025;-73
2022/10/30 08:51:21;;;;;;;23.05;11.90;;;;;;;25.97;44.41;101737.22;5067232;28;20481;-72
2022/10/30 08:53:48;;;;;;;18.17;11.45;;;;;;;26.55;42.81;101732.75;5050202;28;20040;-72
2022/10/30 08:56:14;;;;;;;19.02;10.50;;;;;;;26.56;42.99;101734.47;5049325;28;20041;-72
2022/10/30 08:58:39;;;;;;;24.30;11.48;;;;;;;26.06;43.48;101741.19;5051582;28;20385;-72
2022/10/30 09:01:05;;;;;;;18.67;11.38;;;;;;;26.42;44.00;101740.72;5051506;28;20098;-72
2022/10/30 09:03:30;;;;;;;27.65;11.70;;;;;;;26.26;43.40;101741.78;5049382;28;20147;-73
2022/10/30 09:06:00;;;;;;;20.38;11.70;;;;;;;26.79;43.28;101732.19;5067048;28;20036;-72
2022/10/30 09:08:26;;;;;;;23.08;11.73;;;;;;;27.28;41.75;101729.91;5049254;28;20028;-72
2022/10/30 09:10:56;;;;;;;23.88;11.48;;;;;;;27.35;42.20;101737.44;5050160;28;20029;-73
2022/10/30 09:13:21;;;;;;;26.52;12.10;;;;;;;27.78;41.42;101744.47;5050241;28;20477;-72
2022/10/30 09:15:47;;;;;;;20.33;10.20;;;;;;;27.25;41.93;101742.56;5050608;28;20044;-72
2022/10/30 09:18:12;;;;;;;24.40;11.20;;;;;;;27.34;41.91;101740.22;5050184;28;20396;-73
2022/10/30 09:20:37;;;;;;;23.60;10.63;;;;;;;27.39;42.68;101743.50;5050139;28;20425;-72
2022/10/30 09:23:03;;;;;;;23.83;12.98;;;;;;;27.93;41.74;101742.50;5050660;28;20505;-72
2022/10/30 09:25:29;;;;;;;21.13;12.43;;;;;;;28.40;39.87;101742.88;5070746;28;20025;-72
2022/10/30 09:27:54;;;;;;;22.23;10.85;;;;;;;29.01;39.08;101742.06;5053977;28;20043;-72
2022/10/30 09:30:20;;;;;;;25.00;10.60;;;;;;;28.79;38.65;101740.13;5053081;28;20354;-72
2022/10/30 09:32:45;;;;;;;24.90;11.73;;;;;;;29.27;38.08;101735.63;5053927;28;20027;-72
2022/10/30 09:35:10;;;;;;;20.40;10.75;;;;;;;29.55;38.16;101740.75;5070541;28;20056;-72
2022/10/30 09:37:36;;;;;;;19.92;9.88;;;;;;;30.06;37.67;101736.81;5069424;28;20521;-72
2022/10/30 09:40:03;;;;;;;27.23;10.00;;;;;;;30.46;36.94;101744.50;5053739;28;20464;-72
2022/10/30 09:42:43;;;;;;;26.25;10.07;;;;;;;29.93;37.21;101732.41;5053596;28;20468;-72
2022/10/30 09:45:08;;;;;;;18.30;8.98;;;;;;;28.91;37.77;101737.38;5052679;28;20366;-72
2022/10/30 09:47:39;;;;;;;17.02;9.05;;;;;;;28.42;38.69;101738.22;5070335;28;20036;-72
2022/10/30 09:50:19;;;;;;;20.73;8.80;;;;;;;29.02;37.92;101741.13;5070221;28;20028;-72
2022/10/30 09:52:55;;;;;;;23.17;9.38;;;;;;;28.35;39.02;101743.19;5053037;28;20485;-72
2022/10/30 09:55:44;;;;;;;24.83;9.40;;;;;;;28.50;38.44;101746.59;5053313;28;20045;-73
2022/10/30 09:58:22;;;;;;;20.05;9.05;;;;;;;29.69;37.27;101742.38;5053873;28;20025;-72
2022/10/30 10:00:52;;;;;;;23.73;9.73;;;;;;;29.51;37.57;101742.84;5070032;28;20415;-72
2022/10/30 10:03:46;;;;;;;24.23;9.82;;;;;;;29.78;36.96;101738.97;5053400;28;20031;-74
2022/10/30 10:06:17;;;;;;;26.13;9.57;;;;;;;29.63;37.49;101742.84;5069299;28;20040;-72
2022/10/30 10:08:52;;;;;;;18.25;9.60;;;;;;;30.10;36.63;101739.19;5053214;28;20452;-72
2022/10/30 10:11:24;;;;;;;26.75;10.02;;;;;;;29.16;37.87;101738.22;5069802;28;20025;-72
2022/10/30 10:14:03;;;;;;;23.73;9.43;;;;;;;29.76;36.88;101732.84;5069012;28;20017;-72
2022/10/30 10:16:35;;;;;;;23.08;9.45;;;;;;;29.49;37.42;101735.84;5053116;28;20021;-72
2022/10/30 10:19:15;;;;;;;21.77;10.52;;;;;;;29.31;37.69;101728.19;5052066;28;20024;-73
2022/10/30 10:21:49;;;;;;;21.45;9.82;;;;;;;29.06;38.58;101742.59;5069692;28;20119;-72
2022/10/30 10:24:21;;;;;;;23.60;11.07;;;;;;;29.67;37.43;101747.88;5054286;28;20040;-72
2022/10/30 10:26:55;;;;;;;25.98;10.25;;;;;;;29.64;37.54;101748.13;5052252;28;20546;-72
2022/10/30 10:29:53;;;;;;;21.55;10.43;;;;;;;29.69;37.51;101745.94;5052695;28;20091;-72
2022/10/30 10:32:19;;;;;;;23.23;10.18;;;;;;;29.79;37.17;101746.09;5069423;28;20086;-72
2022/10/30 10:34:50;;;;;;;19.67;9.73;;;;;;;29.38;37.63;101732.13;5068401;28;20481;-72
2022/10/30 10:37:28;;;;;;;18.48;9.98;;;;;;;29.41;37.41;101725.66;5069521;28;20028;-72
2022/10/30 10:40:12;;;;;;;22.52;9.63;;;;;;;29.99;36.65;101735.59;5068515;28;20478;-72
2022/10/30 10:42:51;;;;;;;23.25;10.05;;;;;;;29.59;37.28;101729.63;5069143;28;20034;-72
2022/10/30 10:45:41;;;;;;;22.75;9.35;;;;;;;30.27;36.04;101723.50;5069242;28;20029;-72
2022/10/30 10:48:22;;;;;;;24.58;9.48;;;;;;;29.76;36.84;101719.38;5068540;28;20037;-72
2022/10/30 10:50:50;;;;;;;22.20;9.88;;;;;;;29.84;36.85;101716.94;5053769;28;20024;-72
2022/10/30 10:53:42;;;;;;;26.08;10.10;;;;;;;30.49;35.86;101703.78;5052373;28;20021;-72
2022/10/30 10:56:09;;;;;;;28.73;10.45;;;;;;;30.18;36.46;101708.91;5067939;28;20132;-72
2022/10/30 10:58:49;;;;;;;24.90;10.60;;;;;;;30.60;35.98;101703.75;5052371;28;20508;-72
2022/10/30 11:01:21;;;;;;;29.92;11.55;;;;;;;30.04;36.57;101701.06;5051470;28;20401;-72
2022/10/30 11:04:08;;;;;;;29.50;10.93;;;;;;;30.58;36.65;101696.75;5069035;28;20055;-72
2022/10/30 11:06:45;;;;;;;19.88;10.38;;;;;;;30.33;36.47;101701.44;5052204;28;20033;-72
2022/10/30 11:09:15;;;;;;;24.00;11.48;;;;;;;30.77;35.68;101694.25;5052510;28;20095;-72
2022/10/30 11:11:42;;;;;;;26.17;11.55;;;;;;;30.08;36.14;101702.53;5051977;28;20031;-72
2022/10/30 11:14:19;;;;;;;23.40;10.60;;;;;;;30.20;36.96;101709.66;5052004;28;20021;-72
2022/10/30 11:16:50;;;;;;;20.65;10.43;;;;;;;30.93;35.37;101698.41;5052206;28;20031;-72
2022/10/30 11:19:15;;;;;;;24.35;11.05;;;;;;;30.74;35.27;101701.75;5052061;28;20087;-72
2022/10/30 11:21:46;;;;;;;26.75;10.65;;;;;;;31.03;35.28;101704.75;5053075;28;20048;-72